createdAt,value
2023-08-18T00:01:44.394Z,18.00
2023-08-18T00:04:31.247Z,18.00
2023-08-18T00:07:18.225Z,17.90
2023-08-18T00:10:05.478Z,17.90
2023-08-18T00:12:52.312Z,18.00
2023-08-18T00:15:38.901Z,18.00
2023-08-18T00:18:26.839Z,18.00
2023-08-18T00:21:14.183Z,18.00
2023-08-18T00:24:00.847Z,17.90
2023-08-18T00:26:47.535Z,18.00
2023-08-18T00:29:34.118Z,18.00
2023-08-18T00:32:20.754Z,18.00
2023-08-18T00:35:09.579Z,18.00
2023-08-18T00:37:56.264Z,18.00
2023-08-18T00:40:42.818Z,18.00
2023-08-18T00:43:29.479Z,18.00
2023-08-18T00:46:17.629Z,17.90
2023-08-18T00:49:06.994Z,17.90
2023-08-18T00:51:55.049Z,18.00
2023-08-18T00:54:44.014Z,17.90
2023-08-18T00:57:34.252Z,18.00
2023-08-18T01:00:24.384Z,18.00
2023-08-18T01:03:11.971Z,18.00
2023-08-18T01:06:00.032Z,18.00
2023-08-18T01:08:48.480Z,18.00
2023-08-18T01:11:39.668Z,18.00
2023-08-18T01:14:34.960Z,18.00
2023-08-18T01:17:28.770Z,17.90
2023-08-18T01:20:16.232Z,17.90
2023-08-18T01:23:05.811Z,17.90
2023-08-18T01:25:52.651Z,17.90
2023-08-18T01:28:39.488Z,17.90
2023-08-18T01:31:33.372Z,17.90
2023-08-18T01:34:22.094Z,17.90
2023-08-18T01:37:08.801Z,17.90
2023-08-18T01:39:59.171Z,17.90
2023-08-18T01:42:47.291Z,17.80
2023-08-18T01:45:36.743Z,17.90
2023-08-18T01:48:23.755Z,17.90
2023-08-18T01:51:10.311Z,17.90
2023-08-18T01:53:56.837Z,17.90
2023-08-18T01:56:44.865Z,17.90
2023-08-18T01:59:31.870Z,17.80
2023-08-18T02:02:18.748Z,17.90
2023-08-18T02:05:06.061Z,17.90
2023-08-18T02:07:52.967Z,17.90
2023-08-18T02:10:39.488Z,17.90
2023-08-18T02:13:27.439Z,17.90
2023-08-18T02:16:14.855Z,17.90
2023-08-18T02:19:01.453Z,17.90
2023-08-18T02:21:48.902Z,17.90
2023-08-18T02:24:35.646Z,17.90
2023-08-18T02:27:22.190Z,17.90
2023-08-18T02:30:11.193Z,17.90
2023-08-18T02:32:58.077Z,17.90
2023-08-18T02:35:46.693Z,17.90
2023-08-18T02:38:36.823Z,18.00
2023-08-18T02:41:25.126Z,18.00
2023-08-18T02:44:11.645Z,18.00
2023-08-18T02:46:59.848Z,18.00
2023-08-18T02:49:48.687Z,17.90
2023-08-18T02:52:35.542Z,18.00
2023-08-18T02:55:22.294Z,18.00
2023-08-18T02:58:08.933Z,18.00
2023-08-18T03:00:55.594Z,18.00
2023-08-18T03:03:43.654Z,17.90
2023-08-18T03:06:30.606Z,17.90
2023-08-18T03:09:17.976Z,17.90
2023-08-18T03:12:05.011Z,17.90
2023-08-18T03:14:53.267Z,18.00
2023-08-18T03:17:40.257Z,17.90
2023-08-18T03:20:28.057Z,18.00
2023-08-18T03:23:16.262Z,17.90
2023-08-18T03:26:04.241Z,18.00
2023-08-18T03:28:53.715Z,18.00
2023-08-18T03:31:40.574Z,18.00
2023-08-18T03:34:27.168Z,18.00
2023-08-18T03:37:15.211Z,17.90
2023-08-18T03:40:04.423Z,18.00
2023-08-18T03:42:51.838Z,18.00
2023-08-18T03:45:39.901Z,18.00
2023-08-18T03:48:26.413Z,18.00
2023-08-18T03:51:13.086Z,18.00
2023-08-18T03:54:01.031Z,18.00
2023-08-18T03:56:47.930Z,18.00
2023-08-18T03:59:34.708Z,18.00
2023-08-18T04:02:21.503Z,18.00
2023-08-18T04:05:08.534Z,18.10
2023-08-18T04:07:55.661Z,18.00
2023-08-18T04:10:43.532Z,18.00
2023-08-18T04:13:30.337Z,18.00
2023-08-18T04:16:18.062Z,18.00
2023-08-18T04:19:05.636Z,18.00
2023-08-18T04:21:52.056Z,18.00
2023-08-18T04:24:38.833Z,18.00
2023-08-18T04:27:26.750Z,18.00
2023-08-18T04:30:14.710Z,18.00
2023-08-18T04:33:01.464Z,18.00
2023-08-18T04:35:48.047Z,18.00
2023-08-18T04:38:34.762Z,18.00
2023-08-18T04:41:21.341Z,18.00
2023-08-18T04:44:09.423Z,18.00
2023-08-18T04:46:56.506Z,18.00
2023-08-18T04:49:43.341Z,18.00
2023-08-18T04:52:30.218Z,18.00
2023-08-18T04:55:17.084Z,18.00
2023-08-18T04:58:04.793Z,18.10
2023-08-18T05:00:54.772Z,18.00
2023-08-18T05:03:41.625Z,18.10
2023-08-18T05:06:28.693Z,18.00
2023-08-18T05:09:15.375Z,18.00
2023-08-18T05:12:03.053Z,18.00
2023-08-18T05:14:49.708Z,18.00
2023-08-18T05:17:37.678Z,18.00
2023-08-18T05:20:24.451Z,18.10
2023-08-18T05:23:12.044Z,18.10
2023-08-18T05:26:00.696Z,18.10
2023-08-18T05:28:48.711Z,19.20
2023-08-18T05:31:37.950Z,18.30
2023-08-18T05:34:26.585Z,18.30
2023-08-18T05:37:13.232Z,18.30
2023-08-18T05:39:59.602Z,18.30
2023-08-18T05:42:46.263Z,18.30
2023-08-18T05:45:32.856Z,18.40
2023-08-18T05:48:19.377Z,18.40
2023-08-18T05:51:07.512Z,18.40
2023-08-18T05:53:54.126Z,18.50
2023-08-18T05:56:40.648Z,18.50
2023-08-18T05:59:27.210Z,18.50
2023-08-18T06:02:13.916Z,18.50
2023-08-18T06:05:00.558Z,18.60
2023-08-18T06:07:48.548Z,18.60
2023-08-18T06:10:35.495Z,18.60
2023-08-18T06:13:22.033Z,18.70
2023-08-18T06:16:08.886Z,18.70
2023-08-18T06:18:55.399Z,18.70
2023-08-18T06:21:42.055Z,18.70
2023-08-18T06:24:29.866Z,18.70
2023-08-18T06:27:16.700Z,18.80
2023-08-18T06:30:03.512Z,18.90
2023-08-18T06:32:50.237Z,18.90
2023-08-18T06:35:37.255Z,18.90
2023-08-18T06:38:23.727Z,18.90
2023-08-18T06:41:11.925Z,18.90
2023-08-18T06:43:58.766Z,19.00
2023-08-18T06:46:45.419Z,19.00
2023-08-18T06:49:32.016Z,19.00
2023-08-18T06:52:18.665Z,19.00
2023-08-18T06:55:06.367Z,19.10
2023-08-18T06:57:55.393Z,19.20
2023-08-18T07:00:42.266Z,19.20
2023-08-18T07:03:28.950Z,19.40
2023-08-18T07:06:16.136Z,19.50
2023-08-18T07:09:03.809Z,19.50
2023-08-18T07:11:50.834Z,19.60
2023-08-18T07:14:38.933Z,19.60
2023-08-18T07:17:25.707Z,19.60
2023-08-18T07:20:13.930Z,19.70
2023-08-18T07:23:00.726Z,19.70
2023-08-18T07:25:47.261Z,19.80
2023-08-18T07:28:33.850Z,19.70
2023-08-18T07:31:21.905Z,19.80
2023-08-18T07:34:08.807Z,19.80
2023-08-18T07:36:55.678Z,19.90
2023-08-18T07:39:42.654Z,20.00
2023-08-18T07:42:29.908Z,20.10
2023-08-18T07:45:17.163Z,20.30
2023-08-18T07:48:05.662Z,20.30
2023-08-18T07:50:52.390Z,20.40
2023-08-18T07:53:38.986Z,20.50
2023-08-18T07:56:26.364Z,20.60
2023-08-18T07:59:13.294Z,20.70
2023-08-18T08:02:00.248Z,20.80
2023-08-18T08:04:48.523Z,21.00
2023-08-18T08:07:35.245Z,21.00
2023-08-18T08:10:22.198Z,21.00
2023-08-18T08:13:09.039Z,21.00
2023-08-18T08:15:55.703Z,21.00
2023-08-18T08:18:42.335Z,20.90
2023-08-18T08:21:30.288Z,21.00
2023-08-18T08:24:17.140Z,21.00
2023-08-18T08:27:03.863Z,21.20
2023-08-18T08:29:52.999Z,21.40
2023-08-18T08:32:39.627Z,21.50
2023-08-18T08:35:28.563Z,21.60
2023-08-18T08:38:18.146Z,21.80
2023-08-18T08:41:04.783Z,21.90
2023-08-18T08:43:51.365Z,22.00
2023-08-18T08:46:39.236Z,22.00
2023-08-18T08:49:29.381Z,22.00
2023-08-18T08:52:17.370Z,22.10
2023-08-18T08:55:07.654Z,22.20
2023-08-18T08:57:54.634Z,22.30
2023-08-18T09:00:41.414Z,22.30
2023-08-18T09:03:29.540Z,22.40
2023-08-18T09:06:16.287Z,22.50
2023-08-18T09:09:03.596Z,22.50
2023-08-18T09:11:52.149Z,22.70
2023-08-18T09:14:40.914Z,22.80
2023-08-18T09:17:32.903Z,22.90
2023-08-18T09:20:20.963Z,23.00
2023-08-18T09:23:07.855Z,23.10
2023-08-18T09:25:54.730Z,23.20
2023-08-18T09:28:43.001Z,23.40
2023-08-18T09:31:30.573Z,23.60
2023-08-18T09:34:24.477Z,23.50
2023-08-18T09:37:11.562Z,23.50
2023-08-18T09:39:58.417Z,23.80
2023-08-18T09:42:44.897Z,23.90
2023-08-18T09:45:33.965Z,24.00
2023-08-18T09:48:23.292Z,24.20
2023-08-18T09:51:12.010Z,24.40
2023-08-18T09:54:01.509Z,24.50
2023-08-18T09:56:50.751Z,24.70
2023-08-18T09:59:43.529Z,24.80
2023-08-18T10:02:37.701Z,24.80
2023-08-18T10:05:25.582Z,25.00
2023-08-18T10:08:12.756Z,25.10
2023-08-18T10:10:59.686Z,25.30
2023-08-18T10:13:47.778Z,25.30
2023-08-18T10:16:35.997Z,25.40
2023-08-18T10:19:49.301Z,25.50
2023-08-18T10:22:37.175Z,25.70
2023-08-18T10:25:29.359Z,25.70
2023-08-18T10:28:20.297Z,25.80
2023-08-18T10:31:10.568Z,25.90
2023-08-18T10:34:02.179Z,26.10
2023-08-18T10:36:51.536Z,26.20
2023-08-18T10:39:41.744Z,26.30
2023-08-18T10:42:30.097Z,26.50
2023-08-18T10:45:28.894Z,26.50
2023-08-18T10:48:15.827Z,26.60
2023-08-18T10:51:02.663Z,26.70
2023-08-18T10:53:52.073Z,26.80
2023-08-18T10:56:38.855Z,26.90
2023-08-18T10:59:25.578Z,27.00
2023-08-18T11:02:12.244Z,27.10
2023-08-18T11:04:59.070Z,27.10
2023-08-18T11:07:46.218Z,27.20
2023-08-18T11:10:34.980Z,27.30
2023-08-18T11:13:26.452Z,27.40
2023-08-18T11:16:13.424Z,27.50
2023-08-18T11:19:00.026Z,27.60
2023-08-18T11:21:46.757Z,27.70
2023-08-18T11:24:33.347Z,27.70
2023-08-18T11:27:21.626Z,27.80
2023-08-18T11:30:11.577Z,27.90
2023-08-18T11:32:58.515Z,28.10
2023-08-18T11:35:45.889Z,28.10
2023-08-18T11:38:32.903Z,28.30
2023-08-18T11:41:19.663Z,28.40
2023-08-18T11:44:09.182Z,28.50
2023-08-18T11:46:55.889Z,28.70
2023-08-18T11:49:42.511Z,28.70
2023-08-18T11:52:42.169Z,28.60
2023-08-18T11:55:34.014Z,28.50
2023-08-18T11:58:24.710Z,28.80
2023-08-18T12:01:12.907Z,28.70
2023-08-18T12:03:59.626Z,28.80
2023-08-18T12:06:46.138Z,28.90
2023-08-18T12:09:32.696Z,29.10
2023-08-18T12:12:19.367Z,29.20
2023-08-18T12:15:06.900Z,29.10
2023-08-18T12:17:55.396Z,29.20
2023-08-18T12:20:43.288Z,29.10
2023-08-18T12:23:29.984Z,29.10
2023-08-18T12:26:18.749Z,28.70
2023-08-18T12:29:05.919Z,28.70
2023-08-18T12:31:52.429Z,28.90
2023-08-18T12:34:40.383Z,29.20
2023-08-18T12:37:29.769Z,29.50
2023-08-18T12:40:16.937Z,29.60
2023-08-18T12:43:03.928Z,29.70
2023-08-18T12:45:50.934Z,29.70
2023-08-18T12:48:37.859Z,29.80
2023-08-18T12:51:25.951Z,29.90
2023-08-18T12:54:12.546Z,30.10
2023-08-18T12:56:59.126Z,30.00
2023-08-18T12:59:45.787Z,30.10
2023-08-18T13:02:32.691Z,30.30
2023-08-18T13:05:19.634Z,30.40
2023-08-18T13:08:08.330Z,30.40
2023-08-18T13:10:55.117Z,30.50
2023-08-18T13:13:41.869Z,30.50
2023-08-18T13:16:33.523Z,30.60
2023-08-18T13:19:21.632Z,30.40
2023-08-18T13:22:08.483Z,30.60
2023-08-18T13:24:56.798Z,30.70
2023-08-18T13:27:44.491Z,30.80
2023-08-18T13:30:31.622Z,30.70
2023-08-18T13:33:18.520Z,30.80
2023-08-18T13:36:05.686Z,30.70
2023-08-18T13:38:52.409Z,30.80
2023-08-18T13:41:40.567Z,30.90
2023-08-18T13:44:27.267Z,30.80
2023-08-18T13:47:13.787Z,30.90
2023-08-18T13:50:00.450Z,31.00
2023-08-18T13:52:47.105Z,31.10
2023-08-18T13:55:33.658Z,31.20
2023-08-18T13:58:22.014Z,31.10
2023-08-18T14:01:08.937Z,31.10
2023-08-18T14:03:55.853Z,30.90
2023-08-18T14:06:44.290Z,30.90
2023-08-18T14:09:33.694Z,31.10
2023-08-18T14:12:20.670Z,31.10
2023-08-18T14:15:09.703Z,31.40
2023-08-18T14:17:56.406Z,31.40
2023-08-18T14:20:42.950Z,31.40
2023-08-18T14:23:29.974Z,31.50
2023-08-18T14:26:16.455Z,31.60
2023-08-18T14:29:03.617Z,31.70
2023-08-18T14:31:51.592Z,31.80
2023-08-18T14:34:38.765Z,31.70
2023-08-18T14:37:26.543Z,31.60
2023-08-18T14:40:13.677Z,31.70
2023-08-18T14:43:14.696Z,31.70
2023-08-18T14:46:05.535Z,31.60
2023-08-18T14:48:53.706Z,31.80
2023-08-18T14:51:40.558Z,31.80
2023-08-18T14:54:27.226Z,31.80
2023-08-18T14:57:15.019Z,32.00
2023-08-18T15:00:02.271Z,32.00
2023-08-18T15:02:48.955Z,31.80
2023-08-18T15:05:37.373Z,32.00
2023-08-18T15:08:23.960Z,32.10
2023-08-18T15:11:10.673Z,32.30
2023-08-18T15:13:57.299Z,32.30
2023-08-18T15:16:44.100Z,32.20
2023-08-18T15:19:31.211Z,32.20
2023-08-18T15:22:19.413Z,32.40
2023-08-18T15:25:07.990Z,32.40
2023-08-18T15:27:55.192Z,32.40
2023-08-18T15:30:42.237Z,32.30
2023-08-18T15:33:28.829Z,32.20
2023-08-18T15:36:15.527Z,32.20
2023-08-18T15:39:05.544Z,32.10
2023-08-18T15:41:52.308Z,32.30
2023-08-18T15:44:38.661Z,32.20
2023-08-18T15:47:25.354Z,31.90
2023-08-18T15:50:12.580Z,32.00
2023-08-18T15:52:59.372Z,32.10
2023-08-18T15:55:48.784Z,32.20
2023-08-18T15:58:36.679Z,32.40
2023-08-18T16:01:24.036Z,32.40
2023-08-18T16:04:10.640Z,32.20
2023-08-18T16:06:57.268Z,32.00
2023-08-18T16:09:44.111Z,31.90
2023-08-18T16:12:32.010Z,32.20
2023-08-18T16:18:09.583Z,32.20
2023-08-18T16:20:57.290Z,32.40
2023-08-18T16:23:44.179Z,32.20
2023-08-18T16:26:30.918Z,32.30
2023-08-18T16:29:19.009Z,32.40
2023-08-18T16:32:06.424Z,32.40
2023-08-18T16:34:55.335Z,32.60
2023-08-18T16:37:46.707Z,32.60
2023-08-18T16:40:36.246Z,32.60
2023-08-18T16:43:22.780Z,32.70
2023-08-18T16:46:10.767Z,32.50
2023-08-18T16:48:57.565Z,32.70
2023-08-18T16:51:44.110Z,32.70
2023-08-18T16:54:31.424Z,32.80
2023-08-18T16:57:20.064Z,32.90
2023-08-18T17:00:11.192Z,32.90
2023-08-18T17:02:59.229Z,33.00
2023-08-18T17:05:47.421Z,32.90
2023-08-18T17:08:34.214Z,32.80
2023-08-18T17:11:20.647Z,32.80
2023-08-18T17:14:07.276Z,32.80
2023-08-18T17:16:53.822Z,32.80
2023-08-18T17:19:41.648Z,32.90
2023-08-18T17:22:28.993Z,32.90
2023-08-18T17:25:15.830Z,33.00
2023-08-18T17:28:03.007Z,32.90
2023-08-18T17:30:50.098Z,32.90
2023-08-18T17:33:38.091Z,32.90
2023-08-18T17:36:26.296Z,32.80
2023-08-18T17:39:12.985Z,32.40
2023-08-18T17:42:01.061Z,32.10
2023-08-18T17:44:47.705Z,31.70
2023-08-18T17:47:34.545Z,31.50
2023-08-18T17:50:22.075Z,31.40
2023-08-18T17:53:10.287Z,31.20
2023-08-18T17:55:57.066Z,31.10
2023-08-18T17:58:43.663Z,31.00
2023-08-18T18:01:31.641Z,30.80
2023-08-18T18:04:18.825Z,30.60
2023-08-18T18:07:06.419Z,30.40
2023-08-18T18:09:54.459Z,30.30
2023-08-18T18:12:41.470Z,30.30
2023-08-18T18:15:28.192Z,30.10
2023-08-18T18:18:16.043Z,30.00
2023-08-18T18:21:03.204Z,29.90
2023-08-18T18:23:49.720Z,29.80
2023-08-18T18:26:37.770Z,29.70
2023-08-18T18:29:24.787Z,29.70
2023-08-18T18:32:11.906Z,29.60
2023-08-18T18:34:58.428Z,29.40
2023-08-18T18:37:45.012Z,29.40
2023-08-18T18:40:31.811Z,29.30
2023-08-18T18:43:19.563Z,29.20
2023-08-18T18:46:06.317Z,29.10
2023-08-18T18:48:54.775Z,29.10
2023-08-18T18:51:41.624Z,29.00
2023-08-18T18:54:28.280Z,28.90
2023-08-18T18:57:15.040Z,28.80
2023-08-18T19:00:03.864Z,28.70
2023-08-18T19:02:50.548Z,28.60
2023-08-18T19:05:40.922Z,28.50
2023-08-18T19:08:27.655Z,28.50
2023-08-18T19:11:16.318Z,28.40
2023-08-18T19:14:04.011Z,28.40
2023-08-18T19:16:52.243Z,28.30
2023-08-18T19:19:39.117Z,28.30
2023-08-18T19:22:25.582Z,28.30
2023-08-18T19:25:12.282Z,28.20
2023-08-18T19:27:59.302Z,28.00
2023-08-18T19:30:46.270Z,28.00
2023-08-18T19:33:34.500Z,28.00
2023-08-18T19:36:21.548Z,27.90
2023-08-18T19:39:08.292Z,27.90
2023-08-18T19:41:54.904Z,27.80
2023-08-18T19:44:41.601Z,27.80
2023-08-18T19:47:29.459Z,27.70
2023-08-18T19:50:17.504Z,27.70
2023-08-18T19:53:04.809Z,27.70
2023-08-18T19:55:52.386Z,27.60
2023-08-18T19:58:39.183Z,27.50
2023-08-18T20:01:25.821Z,27.50
2023-08-18T20:04:12.771Z,27.50
2023-08-18T20:07:02.628Z,27.40
2023-08-18T20:09:49.844Z,27.40
2023-08-18T20:12:36.630Z,27.30
2023-08-18T20:15:25.032Z,27.30
2023-08-18T20:18:11.621Z,27.20
2023-08-18T20:20:58.151Z,27.20
2023-08-18T20:23:46.049Z,27.10
2023-08-18T20:26:33.047Z,27.10
2023-08-18T20:29:19.549Z,26.90
2023-08-18T20:32:07.150Z,26.90
2023-08-18T20:34:54.215Z,27.00
2023-08-18T20:37:43.144Z,26.90
2023-08-18T20:40:31.320Z,26.90
2023-08-18T20:43:19.409Z,26.80
2023-08-18T20:46:07.743Z,26.90
2023-08-18T20:48:54.611Z,26.90
2023-08-18T20:51:41.136Z,26.90
2023-08-18T20:54:27.722Z,26.80
2023-08-18T20:57:15.641Z,26.70
2023-08-18T21:00:02.538Z,26.70
2023-08-18T21:02:49.486Z,26.80
2023-08-18T21:05:36.433Z,26.60
2023-08-18T21:08:23.641Z,26.70
2023-08-18T21:11:10.597Z,26.70
2023-08-18T21:13:58.608Z,26.70
2023-08-18T21:16:45.197Z,26.60
2023-08-18T21:19:31.773Z,26.50
2023-08-18T21:22:18.307Z,26.50
2023-08-18T21:25:05.187Z,26.50
2023-08-18T21:27:51.715Z,26.50
2023-08-18T21:30:39.695Z,26.60
2023-08-18T21:33:26.907Z,26.50
2023-08-18T21:36:13.585Z,26.50
2023-08-18T21:39:05.959Z,26.40
2023-08-18T21:41:52.412Z,26.40
2023-08-18T21:44:39.064Z,26.40
2023-08-18T21:47:27.003Z,26.40
2023-08-18T21:50:14.343Z,26.40
2023-08-18T21:53:01.070Z,26.40
2023-08-18T21:55:47.433Z,26.40
2023-08-18T21:58:34.141Z,26.30
2023-08-18T22:01:21.247Z,26.20
2023-08-18T22:04:09.163Z,26.20
2023-08-18T22:06:55.722Z,26.10
2023-08-18T22:09:42.406Z,26.10
2023-08-18T22:12:29.260Z,26.20
2023-08-18T22:15:16.233Z,26.20
2023-08-18T22:18:04.311Z,26.10
2023-08-18T22:20:53.022Z,26.10
2023-08-18T22:23:39.853Z,26.00
2023-08-18T22:26:26.578Z,26.10
2023-08-18T22:29:13.175Z,26.00
2023-08-18T22:31:59.675Z,26.00
2023-08-18T22:34:46.092Z,25.90
2023-08-18T22:37:34.117Z,25.90
2023-08-18T22:40:20.892Z,25.90
2023-08-18T22:43:07.441Z,25.80
2023-08-18T22:45:54.195Z,25.70
2023-08-18T22:48:41.065Z,25.70
2023-08-18T22:51:27.625Z,25.60
2023-08-18T22:54:15.676Z,25.50
2023-08-18T22:57:03.037Z,25.50
2023-08-18T22:59:49.622Z,25.50
2023-08-18T23:02:36.188Z,25.40
2023-08-18T23:05:22.896Z,25.30
2023-08-18T23:08:09.358Z,25.30
2023-08-18T23:11:03.216Z,25.30
2023-08-18T23:13:49.555Z,25.20
2023-08-18T23:16:36.087Z,25.10
2023-08-18T23:19:23.033Z,25.10
2023-08-18T23:22:09.605Z,25.00
2023-08-18T23:24:56.648Z,25.00
2023-08-18T23:27:44.979Z,25.00
2023-08-18T23:30:31.767Z,24.90
2023-08-18T23:33:18.443Z,24.90
2023-08-18T23:36:05.819Z,24.80
2023-08-18T23:38:52.312Z,24.80
2023-08-18T23:41:38.786Z,24.80
2023-08-18T23:44:26.801Z,24.70
2023-08-18T23:47:13.706Z,24.70
2023-08-18T23:50:00.362Z,24.70
2023-08-18T23:52:46.804Z,24.70
2023-08-18T23:55:33.309Z,24.70
2023-08-18T23:58:19.781Z,24.60
